Latest Weather Observations for Nullarbor

IDS60801

Issued at 7:31 pm CDT Thursday 19 October 2017 (issued every 30 minutes, with the page automatically refreshed every 10 minutes)

About weather observations | Map of weather stations | Latest weather observations for SA | Other Formats
Station Details ID: 018106 Name: NULLARBOR Lat: -31.45 Lon: 130.90 Height: 64.0 m
Data from the previous 72 hours. | See also: Recent months at Nullarbor
Date/Time
CDT
Temp
°C
App
Temp
°C
Dew
Point
°C
Rel
Hum
%
Delta-T
°C
Wind Press
QNH
hPa
Press
MSL
hPa
Rain since
9am
mm
Dir  Spd
km/h
Gust
km/h
Spd
kts
Gust
kts
19/07:30pm 16.0 9.3 8.0 59 4.0 SSE 33 44 18 24 1028.0 1027.9 0.0
19/07:00pm 16.5 9.7 7.7 56 4.4 SSE 33 43 18 23 1027.8 1027.7 0.0
19/06:30pm 16.8 9.6 7.7 55 4.6 SSE 35 48 19 26 1027.5 1027.4 0.0
19/06:00pm 17.9 10.7 7.6 51 5.2 S 35 50 19 27 1027.3 1027.2 0.0
19/05:30pm 18.4 11.4 6.9 47 5.7 SSE 33 44 18 24 1027.1 1027.0 0.0
19/05:00pm 18.2 11.3 7.3 49 5.5 S 33 43 18 23 1026.9 1026.8 0.0
19/04:30pm 18.7 11.8 7.2 47 5.8 S 33 44 18 24 1027.0 1026.9 0.0
19/04:00pm 19.1 12.3 7.5 47 5.9 S 33 43 18 23 1027.0 1026.9 0.0
19/03:30pm 18.4 11.6 7.8 50 5.4 S 33 44 18 24 1027.1 1027.0 0.0
19/03:05pm 18.7 12.1 7.8 49 5.6 S 32 50 17 27 1027.1 1027.0 0.0
19/03:00pm 19.5 12.7 7.6 46 6.1 S 33 48 18 26 1027.2 1027.1 0.0
19/02:32pm 19.1 12.5 7.8 48 5.8 S 32 50 17 27 1027.0 1026.9 0.0
19/02:30pm 19.1 12.4 7.5 47 5.9 S 32 48 17 26 1027.1 1027.0 0.0
19/02:00pm 19.1 12.9 7.8 48 5.8 S 30 39 16 21 1027.2 1027.1 0.0
19/01:30pm 19.1 13.4 8.4 50 5.5 S 28 41 15 22 1027.3 1027.2 0.0
19/01:00pm 19.2 13.6 8.8 51 5.4 S 28 41 15 22 1027.0 1026.9 0.0
19/12:30pm 19.2 14.0 8.8 51 5.4 S 26 41 14 22 1027.1 1027.0 0.0
19/12:00pm 18.6 13.9 7.7 49 5.5 S 22 33 12 18 1026.9 1026.8 0.0
19/11:30am 18.5 13.6 8.5 52 5.2 S 24 32 13 17 1026.7 1026.6 0.0
19/11:00am 17.9 12.9 7.9 52 5.1 SSE 24 33 13 18 1026.6 1026.5 0.0
19/10:30am 17.9 12.9 8.2 53 5.0 SE 24 35 13 19 1026.3 1026.2 0.0
19/10:00am 17.4 12.4 8.0 54 4.8 SSE 24 32 13 17 1026.0 1025.9 0.0
19/09:30am 16.9 12.0 8.3 57 4.4 SSE 24 33 13 18 1025.6 1025.5 0.0
19/09:00am 16.3 11.0 8.3 59 4.1 SSE 26 33 14 18 1025.3 1025.2 0.0
19/08:30am 15.6 9.8 8.1 61 3.8 SSE 28 37 15 20 1025.1 1025.0 0.0
19/08:00am 14.5 10.4 8.7 68 2.9 SSE 20 28 11 15 1024.7 1024.6 0.0
19/07:30am 12.2 8.6 8.3 77 1.9 S 17 19 9 10 1024.5 1024.4 0.0
19/07:00am 12.3 8.3 8.2 76 2.0 SSE 19 22 10 12 1024.1 1024.0 0.0
19/06:30am 12.2 9.0 8.5 78 1.8 SSE 15 19 8 10 1024.0 1023.9 0.0
19/06:00am 12.3 8.4 8.8 79 1.7 S 19 20 10 11 1023.3 1023.1 0.0
19/05:30am 12.3 8.9 9.1 81 1.6 SSE 17 19 9 10 1023.1 1022.9 0.0
19/05:00am 13.1 9.8 9.4 78 1.9 S 17 20 9 11 1022.8 1022.7 0.0
19/04:30am 13.5 10.2 9.7 78 1.9 S 17 20 9 11 1022.4 1022.3 0.0
19/04:00am 13.9 10.2 10.1 78 2.0 S 20 26 11 14 1021.8 1021.7 0.0
19/03:30am 14.1 9.7 10.5 79 1.9 SSW 24 32 13 17 1021.2 1021.1 0.0
19/03:00am 14.3 9.1 10.3 77 2.1 SSW 28 37 15 20 1020.9 1020.8 0.0
19/02:30am 14.4 9.8 11.0 80 1.8 S 26 33 14 18 1020.8 1020.7 0.0
19/02:00am 14.4 10.7 11.4 82 1.6 S 22 26 12 14 1020.9 1020.8 0.0
19/01:30am 14.4 10.7 11.6 83 1.5 S 22 28 12 15 1021.1 1021.0 0.0
19/01:00am 14.7 10.5 11.1 79 1.9 S 24 30 13 16 1021.0 1020.9 0.0
19/12:30am 14.8 10.7 11.6 81 1.7 S 24 32 13 17 1020.9 1020.8 0.0
19/12:00am 15.0 11.1 12.1 83 1.6 S 24 35 13 19 1020.4 1020.3 0.0
 
Date/Time
CDT
Temp
°C
App
Temp
°C
Dew
Point
°C
Rel
Hum
%
Delta-T
°C
Wind Press
QNH
hPa
Press
MSL
hPa
Rain since
9am
mm
Dir  Spd
km/h
Gust
km/h
Spd
kts
Gust
kts
18/11:30pm 15.3 10.6 11.9 80 1.8 S 28 37 15 20 1020.7 1020.6 0.0
18/11:00pm 15.5 11.4 12.6 83 1.6 S 26 32 14 17 1020.3 1020.2 0.0
18/10:30pm 15.8 11.6 13.6 87 1.2 SSW 28 41 15 22 1019.9 1019.8 0.0
18/10:00pm 16.4 11.6 14.1 86 1.3 SSW 32 43 17 23 1019.9 1019.8 0.0
18/09:30pm 16.3 13.1 14.3 88 1.1 SSW 24 32 13 17 1019.1 1019.0 0.0
18/09:00pm 16.2 13.3 14.0 87 1.2 SSW 22 30 12 16 1018.6 1018.5 0.0
18/08:30pm 16.5 13.1 13.8 84 1.5 SSW 24 33 13 18 1017.9 1017.8 0.0
18/08:00pm 17.0 12.1 13.7 81 1.9 SSW 32 44 17 24 1016.9 1016.8 0.0
18/07:30pm 17.8 12.3 13.7 77 2.3 SSW 35 57 19 31 1015.6 1015.5 0.0
18/07:21pm 18.0 11.7 13.5 75 2.6 SSW 39 57 21 31 1015.2 1015.1 0.0
18/07:00pm 18.7 12.1 13.8 73 2.8 SSW 41 56 22 30 1014.4 1014.3 0.0
18/06:30pm 19.5 12.7 13.2 67 3.6 SSW 41 57 22 31 1013.9 1013.8 0.0
18/06:00pm 21.4 14.4 12.5 57 5.0 SW 41 54 22 29 1013.6 1013.5 0.0
18/05:33pm 20.3 14.7 12.0 59 4.6 SSW 33 44 18 24 1012.9 1012.8 0.0
18/05:30pm 20.2 15.1 11.9 59 4.6 SSW 30 41 16 22 1012.2 1012.1 0.0
18/05:26pm 20.2 15.2 10.9 55 5.1 SSW 28 39 15 21 1011.4 1011.3 0.0
18/05:00pm 21.5 14.7 9.4 46 6.5 WSW 35 44 19 24 1013.4 1013.3 0.0
18/04:30pm 22.5 16.5 10.0 45 6.8 WSW 32 39 17 21 1012.6 1012.5 0.0
18/04:00pm 22.0 16.4 12.0 53 5.6 WSW 33 44 18 24 1012.0 1011.9 0.0
18/03:30pm 22.3 16.9 12.3 53 5.7 SW 32 41 17 22 1011.6 1011.5 0.0
18/03:00pm 22.4 18.1 12.1 52 5.8 SW 26 35 14 19 1011.3 1011.2 0.0
18/02:51pm 24.4 20.8 12.0 46 7.1 WSW 22 37 12 20 1011.8 1011.7 0.0
18/02:30pm 29.4 25.7 9.5 29 11.2 NNW 19 24 10 13 1011.4 1011.3 0.0
18/02:00pm 29.6 26.0 9.7 29 11.2 NNW 19 28 10 15 1011.1 1011.0 0.0
18/01:30pm 29.7 26.1 9.8 29 11.2 NW 19 28 10 15 1011.3 1011.2 0.0
18/01:00pm 29.7 26.0 9.3 28 11.4 NW 19 39 10 21 1011.2 1011.1 0.0
18/12:30pm 29.5 25.1 9.1 28 11.4 NNW 22 30 12 16 1011.2 1011.1 0.0
18/12:00pm 27.7 21.5 9.5 32 10.1 NE 32 41 17 22 1010.5 1010.3 0.0
18/11:30am 24.8 20.5 12.1 45 7.3 NE 26 32 14 17 1010.6 1010.4 0.0
18/11:00am 23.5 19.1 12.8 51 6.2 NE 28 37 15 20 1010.8 1010.7 0.0
18/10:30am 22.1 17.2 14.2 61 4.6 ENE 33 48 18 26 1009.7 1009.5 0.0
18/10:18am 20.2 16.6 15.2 73 3.0 ENE 28 48 15 26 1009.8 1009.6 0.0
18/10:00am 20.0 15.5 13.7 67 3.6 NE 30 37 16 20 1010.7 1010.5 0.0
18/09:30am 20.6 17.6 14.7 69 3.5 ENE 24 30 13 16 1010.4 1010.2 0.0
18/09:00am 19.1 17.4 14.6 75 2.6 ENE 17 19 9 10 1011.3 1011.2 0.0
18/08:30am 18.4 18.2 14.7 79 2.2 SSE 9 13 5 7 1011.3 1011.2 0.0
18/08:00am 17.8 17.5 14.5 81 1.9 S 9 13 5 7 1011.1 1011.0 0.0
18/07:30am 17.7 15.9 14.4 81 1.9 SE 17 20 9 11 1010.5 1010.3 0.0
18/07:00am 17.6 16.1 14.3 81 1.9 SSW 15 24 8 13 1010.3 1010.1 0.0
18/06:30am 17.3 15.2 14.6 84 1.6 E 19 26 10 14 1009.9 1009.7 0.0
18/06:00am 17.2 16.5 14.3 83 1.7 SSE 11 20 6 11 1010.0 1009.8 0.0
18/05:30am 17.4 16.2 14.1 81 1.9 SSE 13 17 7 9 1010.2 1010.0 0.0
18/05:00am 17.7 16.1 14.0 79 2.1 S 15 20 8 11 1010.2 1010.0 0.0
18/04:30am 17.9 15.6 13.0 73 2.8 SSW 17 26 9 14 1009.8 1009.6 0.0
18/04:00am 18.2 15.2 12.6 70 3.1 ESE 20 26 11 14 1008.9 1008.7 0.0
18/03:30am 18.0 15.0 12.7 71 3.0 ESE 20 30 11 16 1008.9 1008.7 0.0
18/03:00am 17.9 14.1 12.4 70 3.1 ESE 24 32 13 17 1009.0 1008.8 0.0
18/02:30am 18.0 14.0 11.8 67 3.4 ESE 24 32 13 17 1009.4 1009.2 0.0
18/02:00am 18.0 13.6 11.6 66 3.5 ESE 26 39 14 21 1009.5 1009.3 0.0
18/01:30am 17.5 13.1 11.8 69 3.1 SE 26 32 14 17 1010.1 1009.9 0.0
18/01:00am 17.2 14.0 11.9 71 2.9 SW 20 26 11 14 1011.7 1011.6 0.0
18/12:30am 17.1 13.8 11.6 70 3.0 S 20 26 11 14 1010.6 1010.4 0.0
18/12:00am 17.1 13.4 11.6 70 3.0 S 22 28 12 15 1010.8 1010.7 0.0
 
Date/Time
CDT
Temp
°C
App
Temp
°C
Dew
Point
°C
Rel
Hum
%
Delta-T
°C
Wind Press
QNH
hPa
Press
MSL
hPa
Rain since
9am
mm
Dir  Spd
km/h
Gust
km/h
Spd
kts
Gust
kts
17/11:30pm 17.3 13.9 11.3 68 3.3 SSW 20 24 11 13 1010.9 1010.8 0.0
17/11:00pm 17.8 14.0 11.1 65 3.6 S 22 30 12 16 1010.6 1010.4 0.0
17/10:30pm 18.0 13.9 11.3 65 3.7 SSW 24 32 13 17 1010.8 1010.7 0.0
17/10:00pm 18.2 14.1 11.5 65 3.7 S 24 32 13 17 1010.7 1010.5 0.0
17/09:30pm 18.3 14.6 11.6 65 3.7 S 22 28 12 15 1010.3 1010.1 0.0
17/09:00pm 18.6 14.5 11.4 63 4.0 S 24 32 13 17 1009.6 1009.4 0.0
17/08:30pm 18.7 14.4 12.0 65 3.7 SSW 26 33 14 18 1009.4 1009.2 0.0
17/08:00pm 19.1 15.1 11.7 62 4.1 SSW 24 37 13 20 1008.9 1008.7 0.0
17/07:30pm 20.0 14.5 10.7 55 5.1 SSW 30 39 16 21 1008.5 1008.3 0.0
17/07:00pm 21.2 14.7 9.1 46 6.4 SSW 33 44 18 24 1008.0 1007.8 0.0
17/06:30pm 21.5 14.8 9.7 47 6.4 SSW 35 44 19 24 1007.9 1007.7 0.0
17/06:00pm 22.2 15.8 9.4 44 6.9 SSW 33 46 18 25 1007.6 1007.4 0.0
17/05:30pm 23.4 17.2 11.5 47 6.7 SSW 35 43 19 23 1007.2 1007.0 0.0
17/05:00pm 25.6 19.3 9.0 35 9.0 SSW 32 39 17 21 1006.7 1006.6 0.0
17/04:30pm 28.8 21.5 4.3 21 12.6 SSW 32 41 17 22 1006.5 1006.4 0.0
17/04:00pm 30.4 22.6 2.6 17 14.0 SSW 33 41 18 22 1006.6 1006.5 0.0
17/03:30pm 32.9 23.3 0.9 13 15.9 SSW 41 52 22 28 1006.3 1006.2 0.0
17/03:21pm 33.5 26.8 1.3 13 16.1 W 26 46 14 25 1006.3 1006.2 0.0
17/03:00pm 38.0 29.5 -1.9 8 19.6 N 33 46 18 25 1006.4 1006.3 0.0
17/02:30pm 37.4 29.0 -2.4 8 19.3 NNW 32 50 17 27 1007.0 1006.8 0.0
17/02:10pm 38.0 29.1 -1.9 8 19.5 N 35 56 19 30 1007.3 1007.1 0.0
17/02:00pm 37.1 28.1 -2.6 8 19.1 NNW 35 50 19 27 1007.5 1007.3 0.0
17/01:56pm 38.3 29.4 -1.7 8 19.7 NNW 35 50 19 27 1007.4 1007.2 0.0
17/01:53pm 37.1 27.7 -2.6 8 19.1 NNW 37 52 20 28 1007.5 1007.3 0.0
17/01:38pm 37.4 27.7 -2.4 8 19.3 N 39 57 21 31 1007.5 1007.3 0.0
17/01:30pm 37.0 27.2 -2.7 8 19.1 N 39 54 21 29 1007.6 1007.4 0.0
17/01:05pm 36.5 26.3 -3.0 8 18.8 N 41 61 22 33 1008.1 1007.9 0.0
17/01:00pm 37.1 27.2 -1.0 9 18.8 N 41 57 22 31 1008.1 1007.9 0.0
17/12:54pm 36.5 26.9 -1.4 9 18.5 N 39 57 21 31 1008.2 1008.0 0.0
17/12:30pm 36.2 25.8 -1.7 9 18.4 N 43 57 23 31 1008.3 1008.1 0.0
17/12:00pm 33.0 21.5 -2.6 10 16.7 N 48 67 26 36 1008.7 1008.5 0.0
17/11:50am 34.1 22.7 -1.8 10 17.2 N 48 67 26 36 1008.8 1008.6 0.0
17/11:30am 34.0 22.4 -0.6 11 16.9 N 50 65 27 35 1008.9 1008.7 0.0
17/11:06am 33.6 22.2 -2.2 10 16.9 N 48 72 26 39 1008.9 1008.7 0.0
17/11:00am 32.8 21.9 -1.5 11 16.3 N 46 59 25 32 1009.0 1008.8 0.0
17/10:39am 30.8 20.5 -0.8 13 15.0 N 43 61 23 33 1009.3 1009.1 0.0
17/10:30am 30.5 18.9 -1.0 13 14.9 N 50 65 27 35 1009.4 1009.2 0.0
17/10:20am 32.8 21.9 -1.5 11 16.3 NNE 46 67 25 36 1009.1 1008.9 0.0
17/10:00am 31.5 19.5 -1.3 12 15.5 NNE 52 65 28 35 1008.7 1008.5 0.0
17/09:31am 29.4 18.2 -0.9 14 14.2 NNE 48 67 26 36 1008.5 1008.3 0.0
17/09:30am 29.2 18.0 -1.0 14 14.2 NNE 48 63 26 34 1008.5 1008.3 0.0
17/09:12am 28.0 17.5 -1.0 15 13.4 NNE 44 63 24 34 1008.8 1008.6 0.0
17/09:00am 27.5 17.7 -0.5 16 13.1 NNE 41 57 22 31 1008.7 1008.5 0.0
17/08:30am 25.3 15.4 -0.7 18 11.9 NNE 41 54 22 29 1008.7 1008.5 0.0
17/08:00am 23.3 14.6 -0.2 21 10.7 NNE 35 44 19 24 1008.5 1008.3 0.0
17/07:30am 22.2 13.9 -0.5 22 10.2 NNE 33 43 18 23 1008.0 1007.8 0.0
17/07:00am 21.6 13.3 -0.4 23 9.8 NNE 33 44 18 24 1007.4 1007.2 0.0
17/06:30am 21.4 13.3 0.0 24 9.6 NNE 32 43 17 23 1007.4 1007.2 0.0
17/06:00am 21.3 13.2 -0.1 24 9.6 NNE 32 39 17 21 1007.0 1006.8 0.0
17/05:30am 21.3 14.1 0.5 25 9.4 NE 28 37 15 20 1007.2 1007.0 0.0
17/05:00am 21.6 13.6 0.2 24 9.6 NE 32 41 17 22 1006.8 1006.7 0.0
17/04:30am 22.1 14.0 -0.6 22 10.1 NNE 32 39 17 21 1006.5 1006.4 0.0
17/04:00am 21.4 14.4 -0.6 23 9.7 NNE 26 33 14 18 1007.3 1007.1 0.0
17/03:30am 21.2 14.2 -0.7 23 9.7 NE 26 35 14 19 1007.1 1006.9 0.0
17/03:00am 22.3 15.3 -0.4 22 10.2 NNE 26 32 14 17 1007.6 1007.4 0.0
17/02:30am 23.2 16.1 -1.0 20 10.8 NNE 26 32 14 17 1008.0 1007.8 0.0
17/02:00am 23.0 15.9 -1.1 20 10.7 NNE 26 35 14 19 1008.1 1007.9 0.0
17/01:30am 23.3 15.1 -0.9 20 10.9 NNE 32 39 17 21 1008.0 1007.8 0.0
17/01:00am 22.3 15.7 -0.4 22 10.2 NNE 24 30 13 16 1008.9 1008.7 0.0
17/12:30am 21.6 15.7 -1.0 22 10.0 NNE 20 24 11 13 1009.5 1009.3 0.0
17/12:00am 22.3 16.4 -1.1 21 10.4 NNE 20 22 11 12 1010.1 1009.9 0.0
 
Date/Time
CDT
Temp
°C
App
Temp
°C
Dew
Point
°C
Rel
Hum
%
Delta-T
°C
Wind Press
QNH
hPa
Press
MSL
hPa
Rain since
9am
mm
Dir  Spd
km/h
Gust
km/h
Spd
kts
Gust
kts
16/11:30pm 21.9 16.1 -1.4 21 10.2 NNE 19 20 10 11 1010.2 1010.0 0.0
16/11:00pm 22.8 16.9 -2.0 19 10.8 NNE 19 24 10 13 1010.3 1010.1 0.0
16/10:30pm 22.8 16.7 -2.0 19 10.8 NE 20 24 11 13 1010.2 1010.0 0.0
16/10:00pm 23.2 17.3 -2.4 18 11.1 NE 19 20 10 11 1010.3 1010.1 0.0
16/09:30pm 25.2 19.1 -2.4 16 12.2 NNE 20 22 11 12 1010.0 1009.8 0.0
16/09:00pm 25.1 19.5 -3.3 15 12.3 NNE 17 20 9 11 1009.6 1009.4 0.0
16/08:30pm 28.3 22.2 -3.8 12 14.2 NNE 19 24 10 13 1009.2 1009.0 0.0
16/08:00pm 30.7 23.4 -5.8 9 15.9 NE 24 32 13 17 1008.8 1008.6 0.0

Other Formats:

Comma delimited format used in spreadsheet applications
http://www.bom.gov.au/fwo/IDS60801/IDS60801.94651.axf

JavaScript Object Notation format (JSON) in row-major order
http://www.bom.gov.au/fwo/IDS60801/IDS60801.94651.json